sensor_id;sensor_type;location;lat;lon;timestamp;pressure;altitude;pressure_sealevel;temperature;humidity
77702;BME280;66868;42.708;23.404;2024-03-02T00:00:08;94627.50;;;9.50;86.23
77702;BME280;66868;42.708;23.404;2024-03-02T00:02:41;94639.84;;;9.54;86.74
77702;BME280;66868;42.708;23.404;2024-03-02T00:05:07;94609.47;;;9.42;85.78
77702;BME280;66868;42.708;23.404;2024-03-02T00:07:35;94640.47;;;9.58;85.58
77702;BME280;66868;42.708;23.404;2024-03-02T00:10:00;94644.09;;;9.54;86.63
77702;BME280;66868;42.708;23.404;2024-03-02T00:12:28;94624.72;;;9.40;86.61
77702;BME280;66868;42.708;23.404;2024-03-02T00:14:54;94580.03;;;9.01;87.19
77702;BME280;66868;42.708;23.404;2024-03-02T00:17:24;94595.94;;;9.02;87.60
77702;BME280;66868;42.708;23.404;2024-03-02T00:19:51;94623.06;;;9.12;87.52
77702;BME280;66868;42.708;23.404;2024-03-02T00:22:16;94597.53;;;8.90;87.98
77702;BME280;66868;42.708;23.404;2024-03-02T00:24:42;94641.03;;;9.08;88.68
77702;BME280;66868;42.708;23.404;2024-03-02T00:27:08;94633.19;;;9.12;88.49
77702;BME280;66868;42.708;23.404;2024-03-02T00:29:36;94565.75;;;8.73;88.38
77702;BME280;66868;42.708;23.404;2024-03-02T00:32:02;94613.50;;;9.17;88.03
77702;BME280;66868;42.708;23.404;2024-03-02T00:34:28;94631.31;;;9.43;87.38
77702;BME280;66868;42.708;23.404;2024-03-02T00:36:57;94598.69;;;9.25;86.94
77702;BME280;66868;42.708;23.404;2024-03-02T00:39:25;94626.06;;;9.46;87.28
77702;BME280;66868;42.708;23.404;2024-03-02T00:41:50;94623.88;;;9.54;86.93
77702;BME280;66868;42.708;23.404;2024-03-02T00:44:17;94629.97;;;9.64;86.91
77702;BME280;66868;42.708;23.404;2024-03-02T00:46:46;94614.19;;;9.60;86.98
77702;BME280;66868;42.708;23.404;2024-03-02T00:49:18;94592.34;;;9.47;86.91
77702;BME280;66868;42.708;23.404;2024-03-02T00:51:47;94632.13;;;9.70;86.60
77702;BME280;66868;42.708;23.404;2024-03-02T00:54:14;94615.25;;;9.70;86.75
77702;BME280;66868;42.708;23.404;2024-03-02T00:56:41;94586.50;;;9.59;86.64
77702;BME280;66868;42.708;23.404;2024-03-02T00:59:10;94614.03;;;9.76;86.53
77702;BME280;66868;42.708;23.404;2024-03-02T01:01:35;94614.81;;;9.64;86.61
77702;BME280;66868;42.708;23.404;2024-03-02T01:04:01;94603.06;;;9.63;86.64
77702;BME280;66868;42.708;23.404;2024-03-02T01:06:26;94608.03;;;9.64;86.12
77702;BME280;66868;42.708;23.404;2024-03-02T01:08:53;94611.16;;;9.55;86.02
77702;BME280;66868;42.708;23.404;2024-03-02T01:11:19;94585.44;;;9.49;86.49
77702;BME280;66868;42.708;23.404;2024-03-02T01:13:45;94610.13;;;9.58;85.86
77702;BME280;66868;42.708;23.404;2024-03-02T01:16:11;94615.38;;;9.55;86.50
77702;BME280;66868;42.708;23.404;2024-03-02T01:18:37;94583.97;;;9.32;86.46
77702;BME280;66868;42.708;23.404;2024-03-02T01:21:02;94603.34;;;9.46;87.03
77702;BME280;66868;42.708;23.404;2024-03-02T01:23:28;94612.56;;;9.59;86.92
77702;BME280;66868;42.708;23.404;2024-03-02T01:25:54;94603.06;;;9.63;85.49
77702;BME280;66868;42.708;23.404;2024-03-02T01:28:20;94611.19;;;9.68;85.75
77702;BME280;66868;42.708;23.404;2024-03-02T01:30:47;94611.78;;;9.71;85.69
77702;BME280;66868;42.708;23.404;2024-03-02T01:33:12;94602.19;;;9.64;85.90
77702;BME280;66868;42.708;23.404;2024-03-02T01:35:38;94554.66;;;9.29;86.91
77702;BME280;66868;42.708;23.404;2024-03-02T01:38:04;94604.72;;;9.64;86.74
77702;BME280;66868;42.708;23.404;2024-03-02T01:40:36;94578.22;;;9.57;87.23
77702;BME280;66868;42.708;23.404;2024-03-02T01:43:02;94557.06;;;9.45;86.37
77702;BME280;66868;42.708;23.404;2024-03-02T01:45:28;94574.38;;;9.64;86.32
77702;BME280;66868;42.708;23.404;2024-03-02T01:47:54;94581.09;;;9.77;85.87
77702;BME280;66868;42.708;23.404;2024-03-02T01:50:27;94555.34;;;9.58;86.51
77702;BME280;66868;42.708;23.404;2024-03-02T01:52:55;94559.59;;;9.58;86.93
77702;BME280;66868;42.708;23.404;2024-03-02T01:55:20;94585.31;;;9.77;86.97
77702;BME280;66868;42.708;23.404;2024-03-02T01:57:47;94594.75;;;9.75;86.80
77702;BME280;66868;42.708;23.404;2024-03-02T02:00:13;94590.97;;;9.68;87.89
77702;BME280;66868;42.708;23.404;2024-03-02T02:02:39;94594.91;;;9.72;87.90
77702;BME280;66868;42.708;23.404;2024-03-02T02:05:05;94591.63;;;9.84;87.33
77702;BME280;66868;42.708;23.404;2024-03-02T02:07:30;94592.94;;;9.90;87.12
77702;BME280;66868;42.708;23.404;2024-03-02T02:09:57;94574.09;;;9.81;87.26
77702;BME280;66868;42.708;23.404;2024-03-02T02:12:22;94586.88;;;9.92;87.58
77702;BME280;66868;42.708;23.404;2024-03-02T02:14:48;94565.91;;;9.77;87.57
77702;BME280;66868;42.708;23.404;2024-03-02T02:17:15;94579.28;;;9.92;88.06
77702;BME280;66868;42.708;23.404;2024-03-02T02:19:41;94523.53;;;9.56;88.17
77702;BME280;66868;42.708;23.404;2024-03-02T02:22:07;94581.09;;;9.90;88.07
77702;BME280;66868;42.708;23.404;2024-03-02T02:24:33;94579.69;;;9.86;88.03
77702;BME280;66868;42.708;23.404;2024-03-02T02:26:58;94579.50;;;9.89;87.96
77702;BME280;66868;42.708;23.404;2024-03-02T02:29:24;94586.97;;;9.91;87.71
77702;BME280;66868;42.708;23.404;2024-03-02T02:31:49;94587.09;;;9.89;87.98
77702;BME280;66868;42.708;23.404;2024-03-02T02:34:15;94568.16;;;9.82;87.23
77702;BME280;66868;42.708;23.404;2024-03-02T02:36:41;94578.06;;;9.85;87.82
77702;BME280;66868;42.708;23.404;2024-03-02T02:39:11;94561.69;;;9.78;87.04
77702;BME280;66868;42.708;23.404;2024-03-02T02:41:38;94568.44;;;9.77;87.46
77702;BME280;66868;42.708;23.404;2024-03-02T02:44:04;94584.94;;;9.70;87.75
77702;BME280;66868;42.708;23.404;2024-03-02T02:46:30;94582.91;;;9.75;87.58
77702;BME280;66868;42.708;23.404;2024-03-02T02:48:55;94586.88;;;9.80;87.58
77702;BME280;66868;42.708;23.404;2024-03-02T02:51:21;94588.06;;;9.87;87.44
77702;BME280;66868;42.708;23.404;2024-03-02T02:53:46;94567.75;;;9.75;87.37
77702;BME280;66868;42.708;23.404;2024-03-02T02:56:12;94569.34;;;9.76;87.33
77702;BME280;66868;42.708;23.404;2024-03-02T02:58:39;94582.41;;;9.83;87.67
77702;BME280;66868;42.708;23.404;2024-03-02T03:01:04;94584.56;;;9.89;87.30
77702;BME280;66868;42.708;23.404;2024-03-02T03:03:30;94583.09;;;9.85;88.32
77702;BME280;66868;42.708;23.404;2024-03-02T03:05:55;94579.88;;;9.83;88.58
77702;BME280;66868;42.708;23.404;2024-03-02T03:08:21;94568.34;;;9.79;87.35
77702;BME280;66868;42.708;23.404;2024-03-02T03:10:48;94590.31;;;9.91;87.12
77702;BME280;66868;42.708;23.404;2024-03-02T03:13:14;94587.56;;;9.94;87.33
77702;BME280;66868;42.708;23.404;2024-03-02T03:15:40;94584.06;;;9.97;86.70
77702;BME280;66868;42.708;23.404;2024-03-02T03:18:06;94550.47;;;9.82;86.85
77702;BME280;66868;42.708;23.404;2024-03-02T03:20:33;94568.66;;;9.87;87.41
77702;BME280;66868;42.708;23.404;2024-03-02T03:22:59;94588.00;;;10.01;87.37
77702;BME280;66868;42.708;23.404;2024-03-02T03:25:25;94562.59;;;9.90;87.42
77702;BME280;66868;42.708;23.404;2024-03-02T03:27:50;94586.28;;;10.01;87.28
77702;BME280;66868;42.708;23.404;2024-03-02T03:30:18;94561.00;;;9.89;87.01
77702;BME280;66868;42.708;23.404;2024-03-02T03:32:44;94558.25;;;9.79;87.16
77702;BME280;66868;42.708;23.404;2024-03-02T03:35:09;94576.03;;;9.90;87.40
77702;BME280;66868;42.708;23.404;2024-03-02T03:37:35;94592.25;;;10.00;87.98
77702;BME280;66868;42.708;23.404;2024-03-02T03:40:03;94570.47;;;9.85;86.95
77702;BME280;66868;42.708;23.404;2024-03-02T03:42:38;94589.03;;;9.98;87.36
77702;BME280;66868;42.708;23.404;2024-03-02T03:45:04;94578.56;;;9.90;87.15
77702;BME280;66868;42.708;23.404;2024-03-02T03:47:31;94519.97;;;9.46;87.18
77702;BME280;66868;42.708;23.404;2024-03-02T03:49:57;94584.72;;;9.86;87.56
77702;BME280;66868;42.708;23.404;2024-03-02T03:52:23;94588.38;;;9.82;87.34
77702;BME280;66868;42.708;23.404;2024-03-02T03:54:48;94569.97;;;9.80;86.95
77702;BME280;66868;42.708;23.404;2024-03-02T03:57:14;94507.03;;;9.38;87.48
77702;BME280;66868;42.708;23.404;2024-03-02T03:59:39;94524.44;;;9.55;88.34
77702;BME280;66868;42.708;23.404;2024-03-02T04:02:05;94575.03;;;9.80;87.68
77702;BME280;66868;42.708;23.404;2024-03-02T04:04:30;94573.50;;;9.77;88.36
77702;BME280;66868;42.708;23.404;2024-03-02T04:06:56;94574.31;;;9.78;88.30
77702;BME280;66868;42.708;23.404;2024-03-02T04:09:21;94569.34;;;9.76;88.18
77702;BME280;66868;42.708;23.404;2024-03-02T04:11:47;94574.75;;;9.85;87.84
77702;BME280;66868;42.708;23.404;2024-03-02T04:14:12;94573.81;;;9.86;88.36
77702;BME280;66868;42.708;23.404;2024-03-02T04:16:38;94550.44;;;9.69;88.56
77702;BME280;66868;42.708;23.404;2024-03-02T04:19:04;94573.00;;;9.85;88.29
77702;BME280;66868;42.708;23.404;2024-03-02T04:21:30;94574.41;;;9.76;89.10
77702;BME280;66868;42.708;23.404;2024-03-02T04:23:56;94578.56;;;9.77;88.76
77702;BME280;66868;42.708;23.404;2024-03-02T04:26:24;94589.47;;;9.78;88.05
77702;BME280;66868;42.708;23.404;2024-03-02T04:28:50;94582.81;;;9.77;87.97
77702;BME280;66868;42.708;23.404;2024-03-02T04:31:16;94561.72;;;9.51;88.95
77702;BME280;66868;42.708;23.404;2024-03-02T04:33:42;94587.75;;;9.66;88.96
77702;BME280;66868;42.708;23.404;2024-03-02T04:36:07;94581.06;;;9.65;89.27
77702;BME280;66868;42.708;23.404;2024-03-02T04:38:35;94569.31;;;9.51;89.72
77702;BME280;66868;42.708;23.404;2024-03-02T04:41:00;94590.88;;;9.69;88.92
77702;BME280;66868;42.708;23.404;2024-03-02T04:43:26;94591.88;;;9.67;88.82
77702;BME280;66868;42.708;23.404;2024-03-02T04:45:51;94591.97;;;9.65;88.95
77702;BME280;66868;42.708;23.404;2024-03-02T04:48:17;94591.16;;;9.65;89.05
77702;BME280;66868;42.708;23.404;2024-03-02T04:50:42;94596.63;;;9.71;89.07
77702;BME280;66868;42.708;23.404;2024-03-02T04:53:07;94591.56;;;9.71;89.30
77702;BME280;66868;42.708;23.404;2024-03-02T04:55:33;94600.69;;;9.74;89.31
77702;BME280;66868;42.708;23.404;2024-03-02T04:58:05;94588.81;;;9.62;89.40
77702;BME280;66868;42.708;23.404;2024-03-02T05:00:31;94590.94;;;9.55;89.54
77702;BME280;66868;42.708;23.404;2024-03-02T05:02:57;94594.81;;;9.61;90.19
77702;BME280;66868;42.708;23.404;2024-03-02T05:05:22;94540.97;;;9.34;89.58
77702;BME280;66868;42.708;23.404;2024-03-02T05:07:48;94596.59;;;9.59;89.32
77702;BME280;66868;42.708;23.404;2024-03-02T05:10:13;94601.28;;;9.65;89.93
77702;BME280;66868;42.708;23.404;2024-03-02T05:12:39;94578.59;;;9.51;89.97
77702;BME280;66868;42.708;23.404;2024-03-02T05:15:08;94584.75;;;9.47;90.30
77702;BME280;66868;42.708;23.404;2024-03-02T05:17:36;94605.72;;;9.61;90.20
77702;BME280;66868;42.708;23.404;2024-03-02T05:20:02;94605.09;;;9.58;90.74
77702;BME280;66868;42.708;23.404;2024-03-02T05:22:29;94612.38;;;9.62;89.42
77702;BME280;66868;42.708;23.404;2024-03-02T05:24:54;94585.34;;;9.50;90.31
77702;BME280;66868;42.708;23.404;2024-03-02T05:27:19;94615.09;;;9.59;89.93
77702;BME280;66868;42.708;23.404;2024-03-02T05:29:45;94615.09;;;9.59;90.14
77702;BME280;66868;42.708;23.404;2024-03-02T05:32:10;94593.16;;;9.47;90.18
77702;BME280;66868;42.708;23.404;2024-03-02T05:34:36;94629.38;;;9.60;90.16
77702;BME280;66868;42.708;23.404;2024-03-02T05:37:01;94623.50;;;9.60;90.15
77702;BME280;66868;42.708;23.404;2024-03-02T05:39:27;94610.59;;;9.38;90.75
77702;BME280;66868;42.708;23.404;2024-03-02T05:41:52;94614.34;;;9.45;90.72
77702;BME280;66868;42.708;23.404;2024-03-02T05:44:18;94633.59;;;9.60;90.33
77702;BME280;66868;42.708;23.404;2024-03-02T05:46:44;94635.22;;;9.61;89.98
77702;BME280;66868;42.708;23.404;2024-03-02T05:49:10;94600.13;;;9.29;90.86
77702;BME280;66868;42.708;23.404;2024-03-02T05:51:36;94637.03;;;9.59;90.65
77702;BME280;66868;42.708;23.404;2024-03-02T05:54:01;94642.09;;;9.59;90.71
77702;BME280;66868;42.708;23.404;2024-03-02T05:56:27;94626.69;;;9.49;91.07
77702;BME280;66868;42.708;23.404;2024-03-02T05:58:52;94643.19;;;9.55;90.60
77702;BME280;66868;42.708;23.404;2024-03-02T06:01:37;94647.13;;;9.59;91.42
77702;BME280;66868;42.708;23.404;2024-03-02T06:04:02;94645.50;;;9.58;90.96
77702;BME280;66868;42.708;23.404;2024-03-02T06:06:28;94651.22;;;9.61;91.34
77702;BME280;66868;42.708;23.404;2024-03-02T06:08:53;94639.63;;;9.57;91.20
77702;BME280;66868;42.708;23.404;2024-03-02T06:11:19;94648.69;;;9.61;91.40
77702;BME280;66868;42.708;23.404;2024-03-02T06:13:45;94650.19;;;9.64;91.12
77702;BME280;66868;42.708;23.404;2024-03-02T06:16:11;94645.94;;;9.64;91.36
77702;BME280;66868;42.708;23.404;2024-03-02T06:18:36;94637.94;;;9.58;90.84
77702;BME280;66868;42.708;23.404;2024-03-02T06:21:02;94652.63;;;9.65;91.08
77702;BME280;66868;42.708;23.404;2024-03-02T06:23:27;94630.56;;;9.55;91.68
77702;BME280;66868;42.708;23.404;2024-03-02T06:25:53;94626.50;;;9.52;91.21
77702;BME280;66868;42.708;23.404;2024-03-02T06:28:18;94648.47;;;9.64;91.15
77702;BME280;66868;42.708;23.404;2024-03-02T06:30:44;94630.47;;;9.56;91.32
77702;BME280;66868;42.708;23.404;2024-03-02T06:33:10;94653.03;;;9.72;91.72
77702;BME280;66868;42.708;23.404;2024-03-02T06:35:35;94654.16;;;9.68;91.32
77702;BME280;66868;42.708;23.404;2024-03-02T06:38:01;94651.53;;;9.69;91.85
77702;BME280;66868;42.708;23.404;2024-03-02T06:40:27;94655.41;;;9.75;90.93
77702;BME280;66868;42.708;23.404;2024-03-02T06:42:52;94638.75;;;9.58;91.67
77702;BME280;66868;42.708;23.404;2024-03-02T06:45:18;94662.97;;;9.75;91.12
77702;BME280;66868;42.708;23.404;2024-03-02T06:47:43;94648.41;;;9.66;90.62
77702;BME280;66868;42.708;23.404;2024-03-02T06:50:09;94661.16;;;9.77;91.16
77702;BME280;66868;42.708;23.404;2024-03-02T06:52:35;94662.50;;;9.83;91.47
77702;BME280;66868;42.708;23.404;2024-03-02T06:55:01;94643.56;;;9.75;91.04
77702;BME280;66868;42.708;23.404;2024-03-02T06:57:27;94656.94;;;9.90;91.26
77702;BME280;66868;42.708;23.404;2024-03-02T06:59:52;94663.72;;;9.90;90.53
77702;BME280;66868;42.708;23.404;2024-03-02T07:02:20;94645.81;;;9.80;90.95
77702;BME280;66868;42.708;23.404;2024-03-02T07:04:46;94656.63;;;9.82;91.12
77702;BME280;66868;42.708;23.404;2024-03-02T07:07:12;94662.19;;;9.87;91.72
77702;BME280;66868;42.708;23.404;2024-03-02T07:09:38;94646.19;;;9.74;91.16
77702;BME280;66868;42.708;23.404;2024-03-02T07:12:04;94675.56;;;9.89;90.97
77702;BME280;66868;42.708;23.404;2024-03-02T07:14:29;94675.44;;;9.91;90.94
77702;BME280;66868;42.708;23.404;2024-03-02T07:17:13;94642.13;;;9.71;90.67
77702;BME280;66868;42.708;23.404;2024-03-02T07:19:39;94602.16;;;9.51;90.50
77702;BME280;66868;42.708;23.404;2024-03-02T07:22:07;94659.97;;;9.83;90.78
77702;BME280;66868;42.708;23.404;2024-03-02T07:24:43;94656.72;;;9.81;91.05
77702;BME280;66868;42.708;23.404;2024-03-02T07:27:09;94653.25;;;9.69;91.39
77702;BME280;66868;42.708;23.404;2024-03-02T07:29:35;94666.22;;;9.77;91.06
77702;BME280;66868;42.708;23.404;2024-03-02T07:32:01;94676.84;;;9.82;91.42
77702;BME280;66868;42.708;23.404;2024-03-02T07:34:27;94683.34;;;9.99;90.91
77702;BME280;66868;42.708;23.404;2024-03-02T07:36:52;94670.09;;;9.95;90.97
77702;BME280;66868;42.708;23.404;2024-03-02T07:39:18;94676.41;;;10.02;91.13
77702;BME280;66868;42.708;23.404;2024-03-02T07:41:45;94681.25;;;10.05;90.47
77702;BME280;66868;42.708;23.404;2024-03-02T07:44:10;94700.91;;;10.14;89.90
77702;BME280;66868;42.708;23.404;2024-03-02T07:46:40;94666.28;;;10.02;90.47
77702;BME280;66868;42.708;23.404;2024-03-02T07:49:06;94680.16;;;10.09;89.95
77702;BME280;66868;42.708;23.404;2024-03-02T07:51:31;94670.53;;;10.02;90.30
77702;BME280;66868;42.708;23.404;2024-03-02T07:53:57;94703.44;;;10.14;90.58
77702;BME280;66868;42.708;23.404;2024-03-02T07:56:22;94702.41;;;10.04;90.46
77702;BME280;66868;42.708;23.404;2024-03-02T07:58:50;94696.22;;;10.08;90.83
77702;BME280;66868;42.708;23.404;2024-03-02T08:01:16;94699.41;;;10.12;90.85
77702;BME280;66868;42.708;23.404;2024-03-02T08:03:43;94697.31;;;10.18;90.75
77702;BME280;66868;42.708;23.404;2024-03-02T08:06:14;94686.69;;;9.99;90.62
77702;BME280;66868;42.708;23.404;2024-03-02T08:08:40;94677.84;;;10.06;90.65
77702;BME280;66868;42.708;23.404;2024-03-02T08:11:06;94705.03;;;10.30;89.97
77702;BME280;66868;42.708;23.404;2024-03-02T08:13:32;94703.03;;;10.35;90.69
77702;BME280;66868;42.708;23.404;2024-03-02T08:15:57;94706.44;;;10.34;90.19
77702;BME280;66868;42.708;23.404;2024-03-02T08:18:23;94653.53;;;10.04;90.20
77702;BME280;66868;42.708;23.404;2024-03-02T08:20:49;94709.28;;;10.42;90.64
77702;BME280;66868;42.708;23.404;2024-03-02T08:23:14;94702.44;;;10.44;89.51
77702;BME280;66868;42.708;23.404;2024-03-02T08:25:40;94684.41;;;10.36;89.41
77702;BME280;66868;42.708;23.404;2024-03-02T08:28:05;94709.94;;;10.58;89.89
77702;BME280;66868;42.708;23.404;2024-03-02T08:30:31;94703.75;;;10.62;88.58
77702;BME280;66868;42.708;23.404;2024-03-02T08:32:57;94683.69;;;10.59;88.79
77702;BME280;66868;42.708;23.404;2024-03-02T08:35:22;94700.41;;;10.74;88.63
77702;BME280;66868;42.708;23.404;2024-03-02T08:37:48;94706.50;;;10.72;88.65
77702;BME280;66868;42.708;23.404;2024-03-02T08:40:14;94708.91;;;10.73;89.05
77702;BME280;66868;42.708;23.404;2024-03-02T08:42:40;94707.41;;;10.83;88.46
77702;BME280;66868;42.708;23.404;2024-03-02T08:45:07;94679.34;;;10.74;88.80
77702;BME280;66868;42.708;23.404;2024-03-02T08:47:33;94702.16;;;10.86;88.02
77702;BME280;66868;42.708;23.404;2024-03-02T08:49:59;94710.34;;;10.90;88.70
77702;BME280;66868;42.708;23.404;2024-03-02T08:52:25;94697.41;;;10.82;88.51
77702;BME280;66868;42.708;23.404;2024-03-02T08:54:51;94690.78;;;10.92;87.73
77702;BME280;66868;42.708;23.404;2024-03-02T08:57:16;94707.81;;;11.02;87.72
77702;BME280;66868;42.708;23.404;2024-03-02T08:59:42;94702.22;;;11.10;87.42
77702;BME280;66868;42.708;23.404;2024-03-02T09:02:26;94703.44;;;11.17;87.43
77702;BME280;66868;42.708;23.404;2024-03-02T09:04:51;94702.53;;;11.18;86.60
77702;BME280;66868;42.708;23.404;2024-03-02T09:07:18;94706.47;;;11.22;86.38
77702;BME280;66868;42.708;23.404;2024-03-02T09:09:43;94710.13;;;11.31;86.28
77702;BME280;66868;42.708;23.404;2024-03-02T09:12:09;94692.78;;;11.25;86.09
77702;BME280;66868;42.708;23.404;2024-03-02T09:14:36;94709.91;;;11.34;85.93
77702;BME280;66868;42.708;23.404;2024-03-02T09:17:02;94662.94;;;11.04;85.60
77702;BME280;66868;42.708;23.404;2024-03-02T09:19:29;94712.94;;;11.39;85.63
77702;BME280;66868;42.708;23.404;2024-03-02T09:21:54;94652.41;;;10.98;85.75
77702;BME280;66868;42.708;23.404;2024-03-02T09:24:21;94683.78;;;11.21;86.19
77702;BME280;66868;42.708;23.404;2024-03-02T09:26:47;94719.22;;;11.46;85.35
77702;BME280;66868;42.708;23.404;2024-03-02T09:29:12;94722.44;;;11.48;85.29
77702;BME280;66868;42.708;23.404;2024-03-02T09:31:42;94716.97;;;11.54;85.70
77702;BME280;66868;42.708;23.404;2024-03-02T09:34:07;94715.34;;;11.53;85.53
77702;BME280;66868;42.708;23.404;2024-03-02T09:36:33;94728.50;;;11.58;85.34
77702;BME280;66868;42.708;23.404;2024-03-02T09:38:58;94710.03;;;11.56;85.10
77702;BME280;66868;42.708;23.404;2024-03-02T09:41:24;94728.09;;;11.64;84.65
77702;BME280;66868;42.708;23.404;2024-03-02T09:43:50;94721.63;;;11.60;85.00
77702;BME280;66868;42.708;23.404;2024-03-02T09:46:16;94724.66;;;11.65;84.90
77702;BME280;66868;42.708;23.404;2024-03-02T09:48:44;94727.66;;;11.70;85.58
77702;BME280;66868;42.708;23.404;2024-03-02T09:51:10;94714.69;;;11.62;84.79
77702;BME280;66868;42.708;23.404;2024-03-02T09:53:36;94698.09;;;11.58;84.50
77702;BME280;66868;42.708;23.404;2024-03-02T09:56:01;94723.53;;;11.69;84.59
77702;BME280;66868;42.708;23.404;2024-03-02T09:58:27;94731.13;;;11.69;85.38
77702;BME280;66868;42.708;23.404;2024-03-02T10:00:53;94731.13;;;11.69;85.46
77702;BME280;66868;42.708;23.404;2024-03-02T10:03:19;94716.31;;;11.63;85.75
77702;BME280;66868;42.708;23.404;2024-03-02T10:05:44;94720.78;;;11.72;85.57
77702;BME280;66868;42.708;23.404;2024-03-02T10:08:10;94723.81;;;11.77;84.94
77702;BME280;66868;42.708;23.404;2024-03-02T10:10:37;94721.97;;;11.79;85.20
77702;BME280;66868;42.708;23.404;2024-03-02T10:13:08;94697.22;;;11.70;85.08
77702;BME280;66868;42.708;23.404;2024-03-02T10:15:35;94639.13;;;11.43;84.64
77702;BME280;66868;42.708;23.404;2024-03-02T10:18:03;94711.91;;;11.90;84.71
77702;BME280;66868;42.708;23.404;2024-03-02T10:20:28;94708.31;;;11.93;84.97
77702;BME280;66868;42.708;23.404;2024-03-02T10:22:55;94719.78;;;11.99;85.26
77702;BME280;66868;42.708;23.404;2024-03-02T10:25:33;94720.72;;;11.98;84.94
77702;BME280;66868;42.708;23.404;2024-03-02T10:27:59;94725.34;;;12.04;84.46
77702;BME280;66868;42.708;23.404;2024-03-02T10:30:26;94702.97;;;11.98;84.28
77702;BME280;66868;42.708;23.404;2024-03-02T10:32:53;94719.63;;;12.13;84.20
77702;BME280;66868;42.708;23.404;2024-03-02T10:35:20;94703.00;;;12.09;84.48
77702;BME280;66868;42.708;23.404;2024-03-02T10:37:47;94700.22;;;12.12;83.89
77702;BME280;66868;42.708;23.404;2024-03-02T10:40:13;94715.28;;;12.26;83.97
77702;BME280;66868;42.708;23.404;2024-03-02T10:42:40;94706.41;;;12.20;84.45
77702;BME280;66868;42.708;23.404;2024-03-02T10:45:09;94714.84;;;12.32;83.85
77702;BME280;66868;42.708;23.404;2024-03-02T10:47:37;94712.22;;;12.33;84.18
77702;BME280;66868;42.708;23.404;2024-03-02T10:50:05;94703.88;;;12.31;84.10
77702;BME280;66868;42.708;23.404;2024-03-02T10:52:37;94696.97;;;12.33;83.72
77702;BME280;66868;42.708;23.404;2024-03-02T10:55:03;94703.88;;;12.31;83.72
77702;BME280;66868;42.708;23.404;2024-03-02T10:57:54;94706.56;;;12.30;83.70
77702;BME280;66868;42.708;23.404;2024-03-02T11:00:24;94698.22;;;12.28;83.63
77702;BME280;66868;42.708;23.404;2024-03-02T11:02:56;94703.06;;;12.31;83.68
77702;BME280;66868;42.708;23.404;2024-03-02T11:05:45;94697.03;;;12.21;83.92
77702;BME280;66868;42.708;23.404;2024-03-02T11:08:13;94702.09;;;12.21;83.74
77702;BME280;66868;42.708;23.404;2024-03-02T11:10:51;94669.53;;;12.04;84.07
77702;BME280;66868;42.708;23.404;2024-03-02T11:13:31;94660.47;;;11.88;84.05
77702;BME280;66868;42.708;23.404;2024-03-02T11:16:02;94700.84;;;12.15;84.44
77702;BME280;66868;42.708;23.404;2024-03-02T11:18:29;94668.94;;;12.00;84.61
77702;BME280;66868;42.708;23.404;2024-03-02T11:20:55;94699.53;;;12.10;84.12
77702;BME280;66868;42.708;23.404;2024-03-02T11:23:32;94695.38;;;12.09;84.34
77702;BME280;66868;42.708;23.404;2024-03-02T11:26:21;94697.91;;;12.09;84.67
77702;BME280;66868;42.708;23.404;2024-03-02T11:28:48;94692.03;;;12.08;84.45
77702;BME280;66868;42.708;23.404;2024-03-02T11:31:14;94674.75;;;11.89;84.87
77702;BME280;66868;42.708;23.404;2024-03-02T11:33:39;94685.88;;;12.00;84.91
77702;BME280;66868;42.708;23.404;2024-03-02T11:36:09;94693.06;;;12.06;84.05
77702;BME280;66868;42.708;23.404;2024-03-02T11:38:35;94688.19;;;12.03;84.38
77702;BME280;66868;42.708;23.404;2024-03-02T11:41:10;94660.91;;;11.82;85.01
77702;BME280;66868;42.708;23.404;2024-03-02T11:43:39;94692.00;;;11.97;85.39
77702;BME280;66868;42.708;23.404;2024-03-02T11:46:05;94693.91;;;11.93;85.24
77702;BME280;66868;42.708;23.404;2024-03-02T11:48:36;94692.91;;;11.96;84.48
77702;BME280;66868;42.708;23.404;2024-03-02T11:51:03;94676.13;;;11.82;84.36
77702;BME280;66868;42.708;23.404;2024-03-02T11:53:28;94596.56;;;11.36;84.24
77702;BME280;66868;42.708;23.404;2024-03-02T11:55:56;94697.97;;;11.96;83.83
77702;BME280;66868;42.708;23.404;2024-03-02T11:58:21;94687.25;;;11.92;84.67
77702;BME280;66868;42.708;23.404;2024-03-02T12:00:55;94683.78;;;11.93;84.01
77702;BME280;66868;42.708;23.404;2024-03-02T12:03:23;94692.34;;;12.04;83.66
77702;BME280;66868;42.708;23.404;2024-03-02T12:05:51;94689.72;;;12.05;83.37
77702;BME280;66868;42.708;23.404;2024-03-02T12:08:16;94662.09;;;11.89;83.40
77702;BME280;66868;42.708;23.404;2024-03-02T12:10:42;94688.34;;;12.12;83.13
77702;BME280;66868;42.708;23.404;2024-03-02T12:13:09;94686.28;;;12.17;82.92
77702;BME280;66868;42.708;23.404;2024-03-02T12:15:37;94688.72;;;12.19;82.06
77702;BME280;66868;42.708;23.404;2024-03-02T12:18:03;94683.22;;;12.25;82.38
77702;BME280;66868;42.708;23.404;2024-03-02T12:20:30;94682.28;;;12.26;81.78
77702;BME280;66868;42.708;23.404;2024-03-02T12:23:01;94672.38;;;12.23;81.58
77702;BME280;66868;42.708;23.404;2024-03-02T12:25:27;94679.53;;;12.29;81.01
77702;BME280;66868;42.708;23.404;2024-03-02T12:27:54;94688.31;;;12.36;80.91
77702;BME280;66868;42.708;23.404;2024-03-02T12:30:21;94689.84;;;12.38;81.25
77702;BME280;66868;42.708;23.404;2024-03-02T12:32:47;94661.97;;;12.15;80.75
77702;BME280;66868;42.708;23.404;2024-03-02T12:35:13;94667.13;;;12.13;80.63
77702;BME280;66868;42.708;23.404;2024-03-02T12:37:46;94661.59;;;12.08;81.02
77702;BME280;66868;42.708;23.404;2024-03-02T12:40:12;94684.81;;;12.26;80.81
77702;BME280;66868;42.708;23.404;2024-03-02T12:42:39;94687.16;;;12.29;81.36
77702;BME280;66868;42.708;23.404;2024-03-02T12:45:06;94657.09;;;12.12;81.87
77702;BME280;66868;42.708;23.404;2024-03-02T12:47:33;94688.00;;;12.06;82.16
77702;BME280;66868;42.708;23.404;2024-03-02T12:49:59;94690.84;;;11.77;82.14
77702;BME280;66868;42.708;23.404;2024-03-02T12:52:24;94616.47;;;11.29;82.11